Aviation Digital Data Service (ADDS)

Output produced by METARs form (2347 UTC 02 September 2015)
found at http://aviationweather.gov/adds/metars/
 
KBTV 022330Z 0300/0324 00000KT P6SM FEW250 
     FM030600 00000KT P6SM VCSH BKN090 
     FM031400 34006KT P6SM VCSH BKN030 
     FM031700 35010KT P6SM SCT100 
     FM032300 36007KT P6SM FEW250